Isle of North Uist, United Kingdom
Current Conditions -  °F | °C
As of 5:20 AM on Saturday 25 Oct 2014 (Local Time) from EGPL Reporting Station
Light Rain Light Rain  
Wind Chill: 50°   Ceiling: Unl
Heat Index: 50°   Visibility: 5mi
Dew Point: 48°   Wind: 25mph
Humidity: 94%   Direction: 200°SSW
Pressure: 29.38"   Gusts: NA
Location:  57.6°N, 7.16°W
Report Text: EGPL 250420Z AUTO 20022KT 8000 -RA FEW018/// SCT033/// 10/09 Q0995
Loading
Personal Weather Stations






























Interactive Weather Map
Tropical Storm Tracking
New forecast layout! Learn more

10-Day Weather Forecast

Advertisements
Track Severe Weather on mobile